createdAt,value
2023-03-21T00:00:53.531Z,32.92
2023-03-21T00:03:26.618Z,32.58
2023-03-21T00:05:54.659Z,32.33
2023-03-21T00:08:24.927Z,33.40
2023-03-21T00:11:00.475Z,33.53
2023-03-21T00:13:32.937Z,33.13
2023-03-21T00:16:31.286Z,32.58
2023-03-21T00:19:06.441Z,33.67
2023-03-21T00:21:49.061Z,32.85
2023-03-21T00:24:24.031Z,34.38
2023-03-21T00:26:52.021Z,31.52
2023-03-21T00:29:20.397Z,33.25
2023-03-21T00:31:48.066Z,32.92
2023-03-21T00:34:17.697Z,33.75
2023-03-21T00:36:50.851Z,33.05
2023-03-21T00:39:18.751Z,32.72
2023-03-21T00:41:46.390Z,33.13
2023-03-21T00:44:15.597Z,33.88
2023-03-21T00:46:54.479Z,33.13
2023-03-21T00:49:33.613Z,33.15
2023-03-21T00:52:17.067Z,32.97
2023-03-21T00:54:52.630Z,33.42
2023-03-21T00:57:22.177Z,33.22
2023-03-21T00:59:54.736Z,34.22
2023-03-21T01:02:23.127Z,33.25
2023-03-21T01:04:51.205Z,34.25
2023-03-21T01:07:18.744Z,32.65
2023-03-21T01:09:46.960Z,33.55
2023-03-21T01:12:14.482Z,32.03
2023-03-21T01:14:42.404Z,32.13
2023-03-21T01:17:10.089Z,31.98
2023-03-21T01:19:50.543Z,32.40
2023-03-21T01:22:18.642Z,31.95
2023-03-21T01:24:54.151Z,32.28
2023-03-21T01:27:24.555Z,32.38
2023-03-21T01:29:52.617Z,32.15
2023-03-21T01:32:20.307Z,31.55
2023-03-21T01:34:48.540Z,31.63
2023-03-21T01:37:18.668Z,31.02
2023-03-21T01:39:49.640Z,30.83
2023-03-21T01:42:17.434Z,30.40
2023-03-21T01:45:03.350Z,29.13
2023-03-21T01:47:42.808Z,29.88
2023-03-21T01:50:23.989Z,30.10
2023-03-21T01:53:16.289Z,29.50
2023-03-21T01:55:44.375Z,30.00
2023-03-21T01:58:32.572Z,29.38
2023-03-21T02:01:11.839Z,29.05
2023-03-21T02:03:50.928Z,28.50
2023-03-21T02:06:41.584Z,28.92
2023-03-21T02:09:22.724Z,28.60
2023-03-21T02:11:52.080Z,30.13
2023-03-21T02:14:28.957Z,29.48
2023-03-21T02:17:58.936Z,30.10
2023-03-21T02:20:56.176Z,30.60
2023-03-21T02:23:54.752Z,31.42
2023-03-21T02:26:46.426Z,31.70
2023-03-21T02:29:21.890Z,30.05
2023-03-21T02:32:36.917Z,31.60
2023-03-21T02:35:54.241Z,31.17
2023-03-21T02:38:33.664Z,31.23
2023-03-21T02:41:19.072Z,29.88
2023-03-21T02:44:20.035Z,29.27
2023-03-21T02:47:05.392Z,30.45
2023-03-21T02:49:43.180Z,30.45
2023-03-21T02:52:35.522Z,30.02
2023-03-21T02:55:13.886Z,30.05
2023-03-21T02:57:52.485Z,30.17
2023-03-21T03:00:25.668Z,29.60
2023-03-21T03:03:08.336Z,31.42
2023-03-21T03:05:44.417Z,30.23
2023-03-21T03:08:38.384Z,30.48
2023-03-21T03:11:19.739Z,30.98
2023-03-21T03:14:42.060Z,29.58
2023-03-21T03:17:39.166Z,30.88
2023-03-21T03:23:28.212Z,32.72
2023-03-21T03:26:05.528Z,32.63
2023-03-21T03:28:41.721Z,31.63
2023-03-21T03:31:22.052Z,32.63
2023-03-21T03:33:58.161Z,32.53
2023-03-21T03:36:34.279Z,31.92
2023-03-21T03:39:09.126Z,31.73
2023-03-21T03:42:10.111Z,32.40
2023-03-21T03:44:45.382Z,31.40
2023-03-21T03:47:56.071Z,31.45
2023-03-21T03:50:46.928Z,30.73
2023-03-21T03:53:29.590Z,30.30
2023-03-21T03:56:01.558Z,29.27
2023-03-21T03:58:43.244Z,31.38
2023-03-21T04:01:14.288Z,29.52
2023-03-21T04:03:50.782Z,29.98
2023-03-21T04:06:22.219Z,27.73
2023-03-21T04:08:52.125Z,27.98
2023-03-21T04:11:21.248Z,28.45
2023-03-21T04:13:53.125Z,28.67
2023-03-21T04:16:23.514Z,28.92
2023-03-21T04:18:52.517Z,27.88
2023-03-21T04:21:21.664Z,26.52
2023-03-21T04:23:49.517Z,27.27
2023-03-21T04:26:17.203Z,26.20
2023-03-21T04:28:55.426Z,28.35
2023-03-21T04:31:46.168Z,27.80
2023-03-21T04:34:14.416Z,27.27
2023-03-21T04:36:47.438Z,27.58
2023-03-21T04:39:16.807Z,28.35
2023-03-21T04:41:48.227Z,28.05
2023-03-21T04:44:17.597Z,27.92
2023-03-21T04:46:45.611Z,25.77
2023-03-21T04:49:14.451Z,26.15
2023-03-21T04:51:45.323Z,25.63
2023-03-21T04:54:16.253Z,24.70
2023-03-21T04:56:44.773Z,24.92
2023-03-21T04:59:16.663Z,25.02
2023-03-21T05:01:44.943Z,23.65
2023-03-21T05:04:14.451Z,24.10
2023-03-21T05:06:42.704Z,23.65
2023-03-21T05:09:11.730Z,23.17
2023-03-21T05:11:41.282Z,23.40
2023-03-21T05:14:14.364Z,23.42
2023-03-21T05:16:48.838Z,22.88
2023-03-21T05:19:20.625Z,22.10
2023-03-21T05:21:49.802Z,22.83
2023-03-21T05:24:22.790Z,22.00
2023-03-21T05:26:52.555Z,22.85
2023-03-21T05:29:23.985Z,21.98
2023-03-21T05:32:06.897Z,23.52
2023-03-21T05:34:34.789Z,22.73
2023-03-21T05:37:02.881Z,22.17
2023-03-21T05:39:44.284Z,22.10
2023-03-21T05:42:19.210Z,23.08
2023-03-21T05:44:47.843Z,23.65
2023-03-21T05:47:17.336Z,23.30
2023-03-21T05:49:47.783Z,22.70
2023-03-21T05:52:16.755Z,21.77
2023-03-21T05:54:47.008Z,21.83
2023-03-21T05:57:15.573Z,22.02
2023-03-21T05:59:59.104Z,21.88
2023-03-21T06:02:28.263Z,21.48
2023-03-21T06:04:59.521Z,20.75
2023-03-21T06:07:27.546Z,20.42
2023-03-21T06:09:56.705Z,20.05
2023-03-21T06:12:24.476Z,20.05
2023-03-21T06:15:15.492Z,20.75
2023-03-21T06:17:54.356Z,20.13
2023-03-21T06:20:22.456Z,20.60
2023-03-21T06:22:54.148Z,20.30
2023-03-21T06:25:22.305Z,20.50
2023-03-21T06:27:50.253Z,19.10
2023-03-21T06:30:19.539Z,18.17
2023-03-21T06:33:01.143Z,18.85
2023-03-21T06:35:29.076Z,18.77
2023-03-21T06:37:58.429Z,18.02
2023-03-21T06:40:28.500Z,18.35
2023-03-21T06:42:56.533Z,18.20
2023-03-21T06:45:25.685Z,18.15
2023-03-21T06:47:54.019Z,18.65
2023-03-21T06:50:32.575Z,18.08
2023-03-21T06:53:00.308Z,17.65
2023-03-21T06:55:30.942Z,16.88
2023-03-21T06:58:00.825Z,16.40
2023-03-21T07:00:29.557Z,19.65
2023-03-21T07:02:57.833Z,18.50
2023-03-21T07:05:27.478Z,29.33
2023-03-21T07:07:55.071Z,25.38
2023-03-21T07:10:24.499Z,17.48
2023-03-21T07:13:02.076Z,25.35
2023-03-21T07:15:48.988Z,19.55
2023-03-21T07:18:16.686Z,16.88
2023-03-21T07:20:51.018Z,16.77
2023-03-21T07:23:20.444Z,25.05
2023-03-21T07:25:50.409Z,24.02
2023-03-21T07:28:19.075Z,18.05
2023-03-21T07:30:56.687Z,17.65
2023-03-21T07:33:24.953Z,15.25
2023-03-21T07:35:57.785Z,15.93
2023-03-21T07:38:27.045Z,16.38
2023-03-21T07:40:55.298Z,15.02
2023-03-21T07:43:23.567Z,15.60
2023-03-21T07:45:57.555Z,14.27
2023-03-21T07:48:27.964Z,15.05
2023-03-21T07:50:56.331Z,15.27
2023-03-21T07:53:23.889Z,15.75
2023-03-21T07:55:53.113Z,15.70
2023-03-21T07:58:20.998Z,14.40
2023-03-21T08:00:49.030Z,14.02
2023-03-21T08:03:16.881Z,14.30
2023-03-21T08:05:45.536Z,13.32
2023-03-21T08:08:13.204Z,12.93
2023-03-21T08:10:44.321Z,13.68
2023-03-21T08:13:12.566Z,12.48
2023-03-21T08:15:42.179Z,12.32
2023-03-21T08:18:11.220Z,11.57
2023-03-21T08:20:39.378Z,12.10
2023-03-21T08:23:07.087Z,10.70
2023-03-21T08:25:35.712Z,10.15
2023-03-21T08:28:04.299Z,9.82
2023-03-21T08:30:32.245Z,9.70
2023-03-21T08:33:01.882Z,9.38
2023-03-21T08:35:31.508Z,10.57
2023-03-21T08:37:59.230Z,9.80
2023-03-21T08:40:27.269Z,10.52
2023-03-21T08:42:54.886Z,10.32
2023-03-21T08:45:23.740Z,10.20
2023-03-21T08:47:51.488Z,9.98
2023-03-21T08:50:21.999Z,9.82
2023-03-21T08:52:51.055Z,10.38
2023-03-21T08:55:19.880Z,10.25
2023-03-21T08:57:47.516Z,10.60
2023-03-21T09:00:17.845Z,9.95
2023-03-21T09:02:48.379Z,9.57
2023-03-21T09:05:17.026Z,10.50
2023-03-21T09:07:45.609Z,10.73
2023-03-21T09:10:23.077Z,9.00
2023-03-21T09:12:53.808Z,8.43
2023-03-21T09:15:24.932Z,8.40
2023-03-21T09:17:54.233Z,8.02
2023-03-21T09:20:30.742Z,9.02
2023-03-21T09:22:59.808Z,9.05
2023-03-21T09:25:31.031Z,9.23
2023-03-21T09:28:00.544Z,9.80
2023-03-21T09:30:30.097Z,9.77
2023-03-21T09:32:59.634Z,8.90
2023-03-21T09:35:28.372Z,9.65
2023-03-21T09:37:58.959Z,9.30
2023-03-21T09:40:42.254Z,10.05
2023-03-21T09:43:53.796Z,9.57
2023-03-21T09:46:36.744Z,9.07
2023-03-21T09:49:16.674Z,8.98
2023-03-21T09:51:51.104Z,8.85
2023-03-21T09:57:04.479Z,8.23
2023-03-21T09:59:40.161Z,8.63
2023-03-21T10:02:40.877Z,8.60
2023-03-21T10:05:22.695Z,8.43
2023-03-21T10:07:56.880Z,7.88
2023-03-21T10:10:29.441Z,7.50
2023-03-21T10:12:57.898Z,7.80
2023-03-21T10:15:28.190Z,8.52
2023-03-21T10:18:01.029Z,8.55
2023-03-21T10:20:46.922Z,8.13
2023-03-21T10:23:18.112Z,8.05
2023-03-21T10:26:14.912Z,7.55
2023-03-21T10:28:53.106Z,8.32
2023-03-21T10:31:28.456Z,7.20
2023-03-21T10:34:02.559Z,7.20
2023-03-21T10:36:32.844Z,7.30
2023-03-21T10:39:13.772Z,6.70
2023-03-21T10:41:41.392Z,6.90
2023-03-21T10:44:11.918Z,7.15
2023-03-21T10:46:49.532Z,7.75
2023-03-21T10:49:18.230Z,7.10
2023-03-21T10:51:48.005Z,6.13
2023-03-21T10:54:26.379Z,6.25
2023-03-21T10:57:21.300Z,6.35
2023-03-21T10:59:53.749Z,7.22
2023-03-21T11:02:28.596Z,7.13
2023-03-21T11:04:58.387Z,6.93
2023-03-21T11:07:31.690Z,5.03
2023-03-21T11:10:14.604Z,4.32
2023-03-21T11:12:48.780Z,3.13
2023-03-21T11:15:25.555Z,2.65
2023-03-21T11:17:53.231Z,3.60
2023-03-21T11:20:21.863Z,3.90
2023-03-21T11:22:49.921Z,3.47
2023-03-21T11:25:36.122Z,4.15
2023-03-21T11:28:13.738Z,3.17
2023-03-21T11:30:59.023Z,4.10
2023-03-21T11:33:32.832Z,2.95
2023-03-21T11:38:38.649Z,3.58
2023-03-21T11:41:07.255Z,2.97
2023-03-21T11:43:39.366Z,3.30
2023-03-21T11:46:14.467Z,3.00
2023-03-21T11:48:45.275Z,3.40
2023-03-21T11:51:31.198Z,3.80
2023-03-21T11:54:10.707Z,3.95
2023-03-21T11:56:50.982Z,3.70
2023-03-21T11:59:30.855Z,4.60
2023-03-21T12:02:27.263Z,4.75
2023-03-21T12:05:28.258Z,4.80
2023-03-21T12:08:08.208Z,5.00
2023-03-21T12:10:58.418Z,5.20
2023-03-21T12:13:29.310Z,5.35
2023-03-21T12:16:14.583Z,5.40
2023-03-21T12:19:13.886Z,5.22
2023-03-21T12:21:50.894Z,5.72
2023-03-21T12:24:22.066Z,5.43
2023-03-21T12:27:23.968Z,5.22
2023-03-21T12:30:11.953Z,6.07
2023-03-21T12:33:02.839Z,5.78
2023-03-21T12:36:11.564Z,5.82
2023-03-21T12:38:50.686Z,6.10
2023-03-21T12:41:38.735Z,5.68
2023-03-21T12:44:12.715Z,5.88
2023-03-21T12:46:52.358Z,5.35
2023-03-21T12:49:35.106Z,5.28
2023-03-21T12:52:12.906Z,4.63
2023-03-21T12:55:09.469Z,5.10
2023-03-21T12:57:57.580Z,5.18
2023-03-21T13:00:43.674Z,4.40
2023-03-21T13:03:42.015Z,4.25
2023-03-21T13:06:14.950Z,4.70
2023-03-21T13:08:52.816Z,4.73
2023-03-21T13:11:24.312Z,5.13
2023-03-21T13:14:12.308Z,5.07
2023-03-21T13:17:04.572Z,5.47
2023-03-21T13:20:06.567Z,5.55
2023-03-21T13:22:34.395Z,4.82
2023-03-21T13:25:16.825Z,5.22
2023-03-21T13:27:50.611Z,5.13
2023-03-21T13:30:27.095Z,5.45
2023-03-21T13:33:14.752Z,5.78
2023-03-21T13:35:45.417Z,5.43
2023-03-21T13:38:16.560Z,6.00
2023-03-21T13:41:15.480Z,6.25
2023-03-21T13:43:54.603Z,5.47
2023-03-21T13:46:25.556Z,6.13
2023-03-21T13:49:00.984Z,6.97
2023-03-21T13:51:28.861Z,6.78
2023-03-21T13:54:07.037Z,4.00
2023-03-21T13:56:47.075Z,3.40
2023-03-21T13:59:36.858Z,3.17
2023-03-21T14:02:19.870Z,2.92
2023-03-21T14:05:04.829Z,2.53
2023-03-21T14:07:45.664Z,2.60
2023-03-21T14:10:35.200Z,2.65
2023-03-21T14:13:05.506Z,2.90
2023-03-21T14:15:54.862Z,2.20
2023-03-21T14:18:35.289Z,2.60
2023-03-21T14:21:24.360Z,2.60
2023-03-21T14:23:59.659Z,2.42
2023-03-21T14:26:31.892Z,2.50
2023-03-21T14:29:05.424Z,2.15
2023-03-21T14:31:35.737Z,2.70
2023-03-21T14:34:04.715Z,2.60
2023-03-21T14:36:38.952Z,3.22
2023-03-21T14:39:16.911Z,4.10
2023-03-21T14:41:52.250Z,4.00
2023-03-21T14:44:25.377Z,4.60
2023-03-21T14:47:05.540Z,4.78
2023-03-21T14:49:36.432Z,4.70
2023-03-21T14:52:16.602Z,4.70
2023-03-21T14:54:47.640Z,5.40
2023-03-21T14:57:21.368Z,5.00
2023-03-21T14:59:53.282Z,5.07
2023-03-21T15:02:29.233Z,5.78
2023-03-21T15:05:06.151Z,5.95
2023-03-21T15:07:36.308Z,4.88
2023-03-21T15:10:09.478Z,5.88
2023-03-21T15:12:37.127Z,6.53
2023-03-21T15:15:05.821Z,5.93
2023-03-21T15:17:33.538Z,5.93
2023-03-21T15:20:01.791Z,5.30
2023-03-21T15:22:40.733Z,6.70
2023-03-21T15:25:15.029Z,6.07
2023-03-21T15:30:24.563Z,6.70
2023-03-21T15:32:52.617Z,7.07
2023-03-21T15:35:55.641Z,6.75
2023-03-21T15:38:29.817Z,6.75
2023-03-21T15:41:21.777Z,6.53
2023-03-21T15:44:15.241Z,6.60
2023-03-21T15:46:49.582Z,6.80
2023-03-21T15:49:20.516Z,6.70
2023-03-21T15:52:13.736Z,6.25
2023-03-21T15:54:48.022Z,5.93
2023-03-21T15:57:32.989Z,6.43
2023-03-21T16:00:12.626Z,6.32
2023-03-21T16:02:42.128Z,6.80
2023-03-21T16:05:30.603Z,6.65
2023-03-21T16:08:20.023Z,6.80
2023-03-21T16:10:49.100Z,6.78
2023-03-21T16:13:17.513Z,6.53
2023-03-21T16:15:46.922Z,6.70
2023-03-21T16:18:17.112Z,6.80
2023-03-21T16:20:46.620Z,7.13
2023-03-21T16:23:15.895Z,6.28
2023-03-21T16:25:47.047Z,7.00
2023-03-21T16:28:18.381Z,7.50
2023-03-21T16:30:46.311Z,7.43
2023-03-21T16:33:14.530Z,7.88
2023-03-21T16:35:42.208Z,8.52
2023-03-21T16:38:12.489Z,7.82
2023-03-21T16:40:42.982Z,7.00
2023-03-21T16:43:11.805Z,8.20
2023-03-21T16:45:39.635Z,7.25
2023-03-21T16:48:08.956Z,7.97
2023-03-21T16:50:46.755Z,7.20
2023-03-21T16:53:14.727Z,8.52
2023-03-21T16:55:42.558Z,7.60
2023-03-21T16:58:15.518Z,8.20
2023-03-21T17:00:43.512Z,8.45
2023-03-21T17:03:21.468Z,8.27
2023-03-21T17:05:49.455Z,8.77
2023-03-21T17:08:19.682Z,8.30
2023-03-21T17:10:47.366Z,8.85
2023-03-21T17:13:15.380Z,9.43
2023-03-21T17:15:42.942Z,8.55
2023-03-21T17:18:11.949Z,8.82
2023-03-21T17:20:41.520Z,8.77
2023-03-21T17:23:10.323Z,14.32
2023-03-21T17:25:38.019Z,16.63
2023-03-21T17:28:05.929Z,16.73
2023-03-21T17:30:40.163Z,17.58
2023-03-21T17:33:08.599Z,18.35
2023-03-21T17:35:36.992Z,20.98
2023-03-21T17:38:06.838Z,27.52
2023-03-21T17:40:34.701Z,35.55
2023-03-21T17:43:02.665Z,25.83
2023-03-21T17:45:30.516Z,56.85
2023-03-21T17:47:58.425Z,62.50
2023-03-21T17:50:31.353Z,63.55
2023-03-21T17:52:59.376Z,43.95
2023-03-21T17:55:27.171Z,34.97
2023-03-21T17:57:55.165Z,26.95
2023-03-21T18:00:29.085Z,25.42
2023-03-21T18:02:58.038Z,21.00
2023-03-21T18:05:27.381Z,17.30
2023-03-21T18:08:12.510Z,15.00
2023-03-21T18:10:42.308Z,13.13
2023-03-21T18:13:11.346Z,14.00
2023-03-21T18:15:44.238Z,15.93
2023-03-21T18:18:13.488Z,18.73
2023-03-21T18:20:58.490Z,40.92
2023-03-21T18:23:26.777Z,35.13
2023-03-21T18:25:54.418Z,30.77
2023-03-21T18:28:22.719Z,54.95
2023-03-21T18:33:40.670Z,23.90
2023-03-21T18:36:14.568Z,20.67
2023-03-21T18:38:42.667Z,20.55
2023-03-21T18:41:10.530Z,21.10
2023-03-21T18:44:02.237Z,17.13
2023-03-21T18:46:27.237Z,19.33
2023-03-21T18:48:55.590Z,20.42
2023-03-21T18:51:23.305Z,17.77
2023-03-21T18:53:51.555Z,16.98
2023-03-21T18:57:05.698Z,16.88
2023-03-21T18:59:08.569Z,14.95
2023-03-21T19:01:36.962Z,15.52
2023-03-21T19:04:23.127Z,16.85
2023-03-21T19:06:53.090Z,17.27
2023-03-21T19:09:29.080Z,19.67
2023-03-21T19:12:00.717Z,21.08
2023-03-21T19:14:29.563Z,22.27
2023-03-21T19:19:47.781Z,20.83
2023-03-21T19:22:15.978Z,26.50
2023-03-21T19:24:44.404Z,30.95
2023-03-21T19:27:12.157Z,31.52
2023-03-21T19:29:40.610Z,29.92
2023-03-21T19:32:08.566Z,34.08
2023-03-21T19:34:36.854Z,33.35
2023-03-21T19:37:05.211Z,34.35
2023-03-21T19:39:33.193Z,38.05
2023-03-21T19:42:15.495Z,47.33
2023-03-21T19:44:44.645Z,53.88
2023-03-21T19:47:12.329Z,47.75
2023-03-21T19:50:30.846Z,46.58
2023-03-21T19:52:31.903Z,46.05
2023-03-21T19:54:59.687Z,53.22
2023-03-21T19:57:27.202Z,50.50
2023-03-21T19:59:55.365Z,49.55
2023-03-21T20:02:35.663Z,47.38
2023-03-21T20:05:08.131Z,47.78
2023-03-21T20:07:36.134Z,44.10
2023-03-21T20:10:05.246Z,42.67
2023-03-21T20:12:33.234Z,39.70
2023-03-21T20:15:16.125Z,40.17
2023-03-21T20:17:44.892Z,42.60
2023-03-21T20:20:18.243Z,31.88
2023-03-21T20:23:11.017Z,34.90
2023-03-21T20:25:41.871Z,36.92
2023-03-21T20:28:16.341Z,86.85
2023-03-21T20:30:54.027Z,50.72
2023-03-21T20:33:21.729Z,47.45
2023-03-21T20:38:39.426Z,35.67
2023-03-21T20:41:07.780Z,31.00
2023-03-21T20:44:28.187Z,32.65
2023-03-21T20:46:24.084Z,35.67
2023-03-21T20:48:51.819Z,33.78
2023-03-21T20:54:07.421Z,38.47
2023-03-21T20:56:35.754Z,39.65
2023-03-21T20:59:16.320Z,38.65
2023-03-21T21:01:48.825Z,37.47
2023-03-21T21:04:19.980Z,42.42
2023-03-21T21:06:48.749Z,49.92
2023-03-21T21:09:17.321Z,37.47
2023-03-21T21:14:35.511Z,46.33
2023-03-21T21:17:20.931Z,47.55
2023-03-21T21:19:50.791Z,49.05
2023-03-21T21:22:19.073Z,49.83
2023-03-21T21:24:46.690Z,47.75
2023-03-21T21:27:14.640Z,44.72
2023-03-21T21:29:43.490Z,47.75
2023-03-21T21:32:11.603Z,45.78
2023-03-21T21:34:39.263Z,47.15
2023-03-21T21:37:07.167Z,46.35
2023-03-21T21:39:38.649Z,46.42
2023-03-21T21:42:06.604Z,44.92
2023-03-21T21:44:34.236Z,43.63
2023-03-21T21:47:08.544Z,44.88
2023-03-21T21:49:36.550Z,44.35
2023-03-21T21:52:04.911Z,45.13
2023-03-21T21:54:34.267Z,46.70
2023-03-21T21:57:02.303Z,44.58
2023-03-21T21:59:30.070Z,45.35
2023-03-21T22:01:58.569Z,45.30
2023-03-21T22:04:27.911Z,47.28
2023-03-21T22:06:56.121Z,48.17
2023-03-21T22:09:24.077Z,54.28
2023-03-21T22:11:52.208Z,55.25
2023-03-21T22:14:19.905Z,54.35
2023-03-21T22:16:47.901Z,57.47
2023-03-21T22:19:15.521Z,64.50
2023-03-21T22:21:43.438Z,62.50
2023-03-21T22:24:11.000Z,65.10
2023-03-21T22:26:48.995Z,68.32
2023-03-21T22:29:19.591Z,77.03
2023-03-21T22:31:47.639Z,90.35
2023-03-21T22:34:15.502Z,94.00
2023-03-21T22:36:47.100Z,92.93
2023-03-21T22:39:14.824Z,72.50
2023-03-21T22:41:42.629Z,75.35
2023-03-21T22:44:10.301Z,84.93
2023-03-21T22:46:38.295Z,73.93
2023-03-21T22:49:06.141Z,72.55
2023-03-21T22:51:34.206Z,70.40
2023-03-21T22:54:02.084Z,66.75
2023-03-21T22:56:30.127Z,63.55
2023-03-21T22:59:00.197Z,66.50
2023-03-21T23:01:28.177Z,67.57
2023-03-21T23:03:56.821Z,67.93
2023-03-21T23:06:24.718Z,68.82
2023-03-21T23:08:52.314Z,69.43
2023-03-21T23:11:20.241Z,69.18
2023-03-21T23:13:58.736Z,83.13
2023-03-21T23:16:34.874Z,77.78
2023-03-21T23:19:03.522Z,74.50
2023-03-21T23:21:32.139Z,72.65
2023-03-21T23:23:59.633Z,66.28
2023-03-21T23:26:27.883Z,65.80
2023-03-21T23:28:55.908Z,66.90
2023-03-21T23:31:27.266Z,66.30
2023-03-21T23:33:57.945Z,64.63
2023-03-21T23:36:26.202Z,63.17
2023-03-21T23:38:54.174Z,65.15
2023-03-21T23:41:24.091Z,62.80
2023-03-21T23:43:52.022Z,65.90
2023-03-21T23:46:20.551Z,61.67
2023-03-21T23:48:48.305Z,61.47
2023-03-21T23:51:18.025Z,63.65
2023-03-21T23:53:46.567Z,62.80
2023-03-21T23:56:20.629Z,62.30
2023-03-21T23:58:50.109Z,61.65
